sensor_id;sensor_type;location;lat;lon;timestamp;temperature;humidity
12843;DHT22;35724;49.324;-123.118;2022-11-02T00:02:48;24.80;48.80
12843;DHT22;35724;49.324;-123.118;2022-11-02T00:12:59;24.60;47.30
12843;DHT22;35724;49.324;-123.118;2022-11-02T00:23:09;23.50;45.50
12843;DHT22;35724;49.324;-123.118;2022-11-02T00:33:27;22.90;45.70
12843;DHT22;35724;49.324;-123.118;2022-11-02T00:43:35;22.50;45.90
12843;DHT22;35724;49.324;-123.118;2022-11-02T00:53:44;22.80;45.90
12843;DHT22;35724;49.324;-123.118;2022-11-02T01:03:56;23.40;46.70
12843;DHT22;35724;49.324;-123.118;2022-11-02T01:14:12;23.80;47.50
12843;DHT22;35724;49.324;-123.118;2022-11-02T01:24:36;23.90;48.10
12843;DHT22;35724;49.324;-123.118;2022-11-02T01:35:41;24.10;48.80
12843;DHT22;35724;49.324;-123.118;2022-11-02T01:45:50;24.30;49.10
12843;DHT22;35724;49.324;-123.118;2022-11-02T01:56:16;24.40;49.50
12843;DHT22;35724;49.324;-123.118;2022-11-02T02:06:54;24.50;50.00
12843;DHT22;35724;49.324;-123.118;2022-11-02T02:17:25;24.50;50.00
12843;DHT22;35724;49.324;-123.118;2022-11-02T02:27:50;24.50;50.30
12843;DHT22;35724;49.324;-123.118;2022-11-02T02:38:02;24.60;50.20
12843;DHT22;35724;49.324;-123.118;2022-11-02T02:48:16;24.60;50.30
12843;DHT22;35724;49.324;-123.118;2022-11-02T02:58:27;24.70;50.00
12843;DHT22;35724;49.324;-123.118;2022-11-02T03:08:39;24.70;50.20
12843;DHT22;35724;49.324;-123.118;2022-11-02T03:18:54;24.70;50.20
12843;DHT22;35724;49.324;-123.118;2022-11-02T03:29:12;24.80;50.00
12843;DHT22;35724;49.324;-123.118;2022-11-02T03:39:42;24.80;49.40
12843;DHT22;35724;49.324;-123.118;2022-11-02T03:49:54;24.80;50.10
12843;DHT22;35724;49.324;-123.118;2022-11-02T04:00:11;24.80;49.80
12843;DHT22;35724;49.324;-123.118;2022-11-02T04:10:46;24.90;50.00
12843;DHT22;35724;49.324;-123.118;2022-11-02T04:21:11;24.90;49.10
12843;DHT22;35724;49.324;-123.118;2022-11-02T04:31:20;24.80;47.80
12843;DHT22;35724;49.324;-123.118;2022-11-02T04:41:36;24.80;47.40
12843;DHT22;35724;49.324;-123.118;2022-11-02T04:52:15;24.90;47.00
12843;DHT22;35724;49.324;-123.118;2022-11-02T05:02:47;24.90;46.70
12843;DHT22;35724;49.324;-123.118;2022-11-02T05:12:59;25.00;45.90
12843;DHT22;35724;49.324;-123.118;2022-11-02T05:23:11;25.00;45.90
12843;DHT22;35724;49.324;-123.118;2022-11-02T05:33:21;25.10;45.60
12843;DHT22;35724;49.324;-123.118;2022-11-02T05:43:38;25.10;45.40
12843;DHT22;35724;49.324;-123.118;2022-11-02T05:53:49;25.10;44.80
12843;DHT22;35724;49.324;-123.118;2022-11-02T06:03:56;25.20;45.10
12843;DHT22;35724;49.324;-123.118;2022-11-02T06:14:05;25.20;44.90
12843;DHT22;35724;49.324;-123.118;2022-11-02T06:24:13;25.20;44.80
12843;DHT22;35724;49.324;-123.118;2022-11-02T06:34:22;25.20;44.60
12843;DHT22;35724;49.324;-123.118;2022-11-02T06:44:29;25.20;44.50
12843;DHT22;35724;49.324;-123.118;2022-11-02T06:54:38;25.20;44.40
12843;DHT22;35724;49.324;-123.118;2022-11-02T07:04:45;25.30;44.30
12843;DHT22;35724;49.324;-123.118;2022-11-02T07:14:55;25.30;44.40
12843;DHT22;35724;49.324;-123.118;2022-11-02T07:25:04;25.30;44.20
12843;DHT22;35724;49.324;-123.118;2022-11-02T07:35:14;25.20;44.10
12843;DHT22;35724;49.324;-123.118;2022-11-02T07:45:22;25.10;44.20
12843;DHT22;35724;49.324;-123.118;2022-11-02T07:55:31;25.00;44.10
12843;DHT22;35724;49.324;-123.118;2022-11-02T08:05:39;25.00;43.90
12843;DHT22;35724;49.324;-123.118;2022-11-02T08:15:50;25.00;43.60
12843;DHT22;35724;49.324;-123.118;2022-11-02T08:25:59;25.00;43.40
12843;DHT22;35724;49.324;-123.118;2022-11-02T08:36:08;24.90;43.30
12843;DHT22;35724;49.324;-123.118;2022-11-02T08:46:16;24.90;43.60
12843;DHT22;35724;49.324;-123.118;2022-11-02T08:56:28;24.90;43.60
12843;DHT22;35724;49.324;-123.118;2022-11-02T09:06:38;24.90;43.20
12843;DHT22;35724;49.324;-123.118;2022-11-02T09:16:53;24.90;43.10
12843;DHT22;35724;49.324;-123.118;2022-11-02T09:27:02;24.90;43.40
12843;DHT22;35724;49.324;-123.118;2022-11-02T09:37:14;24.90;43.10
12843;DHT22;35724;49.324;-123.118;2022-11-02T09:47:22;24.90;42.70
12843;DHT22;35724;49.324;-123.118;2022-11-02T09:57:57;24.90;42.80
12843;DHT22;35724;49.324;-123.118;2022-11-02T10:08:29;24.90;43.00
12843;DHT22;35724;49.324;-123.118;2022-11-02T10:18:41;24.90;43.70
12843;DHT22;35724;49.324;-123.118;2022-11-02T10:28:57;24.90;42.70
12843;DHT22;35724;49.324;-123.118;2022-11-02T10:39:20;24.90;42.60
12843;DHT22;35724;49.324;-123.118;2022-11-02T10:50:03;24.90;42.90
12843;DHT22;35724;49.324;-123.118;2022-11-02T11:00:26;25.00;42.90
12843;DHT22;35724;49.324;-123.118;2022-11-02T11:10:38;25.00;42.40
12843;DHT22;35724;49.324;-123.118;2022-11-02T11:20:54;24.90;42.60
12843;DHT22;35724;49.324;-123.118;2022-11-02T11:31:16;24.90;42.40
12843;DHT22;35724;49.324;-123.118;2022-11-02T11:41:31;24.90;42.60
12843;DHT22;35724;49.324;-123.118;2022-11-02T11:51:42;25.00;42.10
12843;DHT22;35724;49.324;-123.118;2022-11-02T12:02:01;24.90;42.20
12843;DHT22;35724;49.324;-123.118;2022-11-02T12:12:21;24.90;42.40
12843;DHT22;35724;49.324;-123.118;2022-11-02T12:22:46;24.90;42.30
12843;DHT22;35724;49.324;-123.118;2022-11-02T12:33:25;24.90;41.60
12843;DHT22;35724;49.324;-123.118;2022-11-02T12:43:49;24.90;42.10
12843;DHT22;35724;49.324;-123.118;2022-11-02T12:54:09;24.90;42.20
12843;DHT22;35724;49.324;-123.118;2022-11-02T13:04:47;24.90;41.90
12843;DHT22;35724;49.324;-123.118;2022-11-02T13:15:02;24.90;41.90
12843;DHT22;35724;49.324;-123.118;2022-11-02T13:25:19;24.90;42.00
12843;DHT22;35724;49.324;-123.118;2022-11-02T13:35:42;25.00;41.80
12843;DHT22;35724;49.324;-123.118;2022-11-02T13:46:08;25.00;41.60
12843;DHT22;35724;49.324;-123.118;2022-11-02T13:56:28;24.90;41.60
12843;DHT22;35724;49.324;-123.118;2022-11-02T14:07:06;25.00;42.00
12843;DHT22;35724;49.324;-123.118;2022-11-02T14:17:17;25.00;41.80
12843;DHT22;35724;49.324;-123.118;2022-11-02T14:27:30;25.00;41.60
12843;DHT22;35724;49.324;-123.118;2022-11-02T14:37:55;25.30;43.40
12843;DHT22;35724;49.324;-123.118;2022-11-02T14:48:13;25.50;43.80
12843;DHT22;35724;49.324;-123.118;2022-11-02T14:58:31;25.60;45.50
12843;DHT22;35724;49.324;-123.118;2022-11-02T15:09:01;25.60;46.10
12843;DHT22;35724;49.324;-123.118;2022-11-02T15:19:37;25.60;45.80
12843;DHT22;35724;49.324;-123.118;2022-11-02T15:29:47;25.50;45.00
12843;DHT22;35724;49.324;-123.118;2022-11-02T15:39:56;25.20;44.50
12843;DHT22;35724;49.324;-123.118;2022-11-02T15:50:31;24.70;43.70
12843;DHT22;35724;49.324;-123.118;2022-11-02T16:00:41;24.40;43.30
12843;DHT22;35724;49.324;-123.118;2022-11-02T16:10:50;24.30;43.40
12843;DHT22;35724;49.324;-123.118;2022-11-02T16:21:11;24.20;43.70
12843;DHT22;35724;49.324;-123.118;2022-11-02T16:31:22;24.20;43.90
12843;DHT22;35724;49.324;-123.118;2022-11-02T16:41:35;24.10;43.90
12843;DHT22;35724;49.324;-123.118;2022-11-02T16:51:50;24.20;43.90
12843;DHT22;35724;49.324;-123.118;2022-11-02T17:01:59;24.20;44.10
12843;DHT22;35724;49.324;-123.118;2022-11-02T17:12:12;24.20;43.90
12843;DHT22;35724;49.324;-123.118;2022-11-02T17:22:24;24.20;43.80
12843;DHT22;35724;49.324;-123.118;2022-11-02T17:32:34;24.10;43.40
12843;DHT22;35724;49.324;-123.118;2022-11-02T17:42:41;24.10;43.20
12843;DHT22;35724;49.324;-123.118;2022-11-02T17:53:10;24.20;43.30
12843;DHT22;35724;49.324;-123.118;2022-11-02T18:03:18;24.20;42.90
12843;DHT22;35724;49.324;-123.118;2022-11-02T18:13:35;24.10;44.10
12843;DHT22;35724;49.324;-123.118;2022-11-02T18:23:43;22.90;42.80
12843;DHT22;35724;49.324;-123.118;2022-11-02T18:33:52;22.40;43.40
12843;DHT22;35724;49.324;-123.118;2022-11-02T18:44:01;22.40;43.50
12843;DHT22;35724;49.324;-123.118;2022-11-02T18:54:20;22.20;42.40
12843;DHT22;35724;49.324;-123.118;2022-11-02T19:04:27;21.70;42.60
12843;DHT22;35724;49.324;-123.118;2022-11-02T19:14:37;21.60;43.00
12843;DHT22;35724;49.324;-123.118;2022-11-02T19:24:44;21.50;42.80
12843;DHT22;35724;49.324;-123.118;2022-11-02T19:34:53;21.20;42.20
12843;DHT22;35724;49.324;-123.118;2022-11-02T19:45:03;21.00;42.90
12843;DHT22;35724;49.324;-123.118;2022-11-02T19:55:12;21.00;43.40
12843;DHT22;35724;49.324;-123.118;2022-11-02T20:05:21;20.90;43.50
12843;DHT22;35724;49.324;-123.118;2022-11-02T20:15:29;20.90;43.60
12843;DHT22;35724;49.324;-123.118;2022-11-02T20:25:43;20.80;43.70
12843;DHT22;35724;49.324;-123.118;2022-11-02T20:35:52;20.80;43.30
12843;DHT22;35724;49.324;-123.118;2022-11-02T20:46:04;20.70;42.60
12843;DHT22;35724;49.324;-123.118;2022-11-02T20:56:53;20.70;43.00
12843;DHT22;35724;49.324;-123.118;2022-11-02T21:08:00;21.10;42.30
12843;DHT22;35724;49.324;-123.118;2022-11-02T21:19:57;21.50;43.40
12843;DHT22;35724;49.324;-123.118;2022-11-02T21:42:35;22.00;43.50
12843;DHT22;35724;49.324;-123.118;2022-11-02T22:28:35;21.80;42.50
12843;DHT22;35724;49.324;-123.118;2022-11-02T22:39:36;21.70;42.40
12843;DHT22;35724;49.324;-123.118;2022-11-02T22:51:00;21.70;42.60
12843;DHT22;35724;49.324;-123.118;2022-11-02T23:02:17;21.70;43.00
12843;DHT22;35724;49.324;-123.118;2022-11-02T23:13:20;21.70;42.80
12843;DHT22;35724;49.324;-123.118;2022-11-02T23:24:27;21.70;42.90
12843;DHT22;35724;49.324;-123.118;2022-11-02T23:47:20;25.30;37.00
12843;DHT22;35724;49.324;-123.118;2022-11-02T23:58:26;23.10;39.80
